Time;durP1;ratioP1;P1;durP2;ratioP2;P2;SDS_P1;SDS_P2;PMS_P1;PMS_P2;Temp;Humidity;BMP_temperature;BMP_pressure;BME280_temperature;BME280_humidity;BME280_pressure;Samples;Min_cycle;Max_cycle;Signal;HPM_P1;HPM_P2
2021/10/20 00:00:28;;;;;;;7.42;5.62;;;8.40;99.90;;;;;;2008298;70;21050;-83
2021/10/20 00:02:55;;;;;;;7.85;5.35;;;8.30;99.90;;;;;;2014962;70;21123;-84
2021/10/20 00:05:21;;;;;;;6.05;5.40;;;8.30;99.90;;;;;;2020883;70;21062;-83
2021/10/20 00:07:47;;;;;;;11.55;5.45;;;8.30;99.90;;;;;;1995039;70;21193;-83
2021/10/20 00:10:13;;;;;;;10.72;5.62;;;8.30;99.90;;;;;;2009442;70;21015;-83
2021/10/20 00:12:39;;;;;;;7.50;5.25;;;8.20;99.90;;;;;;1999498;70;21059;-83
2021/10/20 00:15:05;;;;;;;5.85;5.15;;;8.20;99.90;;;;;;2010601;70;21109;-82
2021/10/20 00:17:31;;;;;;;11.03;4.92;;;8.20;99.90;;;;;;2008183;70;21063;-83
2021/10/20 00:20:01;;;;;;;8.68;5.47;;;8.20;99.90;;;;;;1994742;70;21059;-83
2021/10/20 00:22:25;;;;;;;10.40;5.67;;;8.20;99.90;;;;;;2017927;70;21144;-83
2021/10/20 00:24:51;;;;;;;11.18;4.60;;;8.20;99.90;;;;;;1990322;70;21134;-83
2021/10/20 00:27:18;;;;;;;8.08;5.60;;;8.10;99.90;;;;;;1982671;70;21058;-83
2021/10/20 00:29:44;;;;;;;6.17;4.62;;;8.10;99.90;;;;;;1984243;70;21132;-83
2021/10/20 00:32:10;;;;;;;6.92;5.10;;;8.10;99.90;;;;;;1997710;70;21116;-83
2021/10/20 00:34:36;;;;;;;9.73;5.92;;;8.20;99.90;;;;;;1986029;70;21216;-83
2021/10/20 00:37:02;;;;;;;8.50;5.72;;;8.10;99.90;;;;;;2023643;70;21020;-82
2021/10/20 00:39:28;;;;;;;7.65;5.35;;;8.10;99.90;;;;;;2017578;70;21477;-83
2021/10/20 00:41:54;;;;;;;7.85;4.92;;;8.10;99.90;;;;;;2009454;70;21516;-82
2021/10/20 00:44:20;;;;;;;9.45;5.33;;;8.20;99.90;;;;;;2022162;70;21521;-83
2021/10/20 00:46:47;;;;;;;6.80;5.10;;;8.10;99.90;;;;;;1987981;70;21177;-83
2021/10/20 00:49:13;;;;;;;6.53;5.05;;;8.10;99.90;;;;;;2008246;70;21128;-83
2021/10/20 00:51:40;;;;;;;5.17;4.67;;;8.10;99.90;;;;;;2015925;70;21140;-83
2021/10/20 00:54:06;;;;;;;8.35;5.30;;;8.00;99.90;;;;;;1995298;70;21059;-82
2021/10/20 00:56:32;;;;;;;8.65;5.83;;;8.10;99.90;;;;;;2013972;70;21046;-83
2021/10/20 00:58:58;;;;;;;8.10;4.50;;;8.10;99.90;;;;;;2023437;70;21024;-82
2021/10/20 01:01:24;;;;;;;12.30;5.65;;;8.00;99.90;;;;;;1996049;70;21123;-83
2021/10/20 01:03:50;;;;;;;8.80;4.67;;;8.00;99.90;;;;;;1982807;70;21046;-82
2021/10/20 01:06:17;;;;;;;7.62;4.87;;;8.00;99.90;;;;;;2006666;70;21119;-81
2021/10/20 01:08:43;;;;;;;7.65;5.15;;;7.90;99.90;;;;;;1984254;70;21547;-83
2021/10/20 01:11:09;;;;;;;7.67;4.80;;;7.90;99.90;;;;;;1988850;70;21458;-82
2021/10/20 01:13:36;;;;;;;7.65;4.97;;;7.90;99.90;;;;;;2001127;70;21512;-82
2021/10/20 01:16:02;;;;;;;8.65;4.70;;;7.90;99.90;;;;;;2006709;70;21109;-83
2021/10/20 01:18:28;;;;;;;6.97;5.50;;;7.90;99.90;;;;;;1988015;70;21043;-84
2021/10/20 01:20:54;;;;;;;8.13;5.42;;;7.80;99.90;;;;;;2017008;70;21132;-82
2021/10/20 01:23:20;;;;;;;7.17;5.08;;;7.90;99.90;;;;;;2007448;70;21042;-82
2021/10/20 01:25:46;;;;;;;14.07;5.35;;;7.90;99.90;;;;;;2010232;70;21058;-83
2021/10/20 01:28:13;;;;;;;5.62;5.03;;;7.90;99.90;;;;;;1997099;70;21058;-83
2021/10/20 01:30:40;;;;;;;7.47;5.97;;;7.80;99.90;;;;;;1980597;70;21217;-83
2021/10/20 01:33:06;;;;;;;6.33;5.72;;;7.80;99.90;;;;;;2011314;70;21063;-83
2021/10/20 01:35:32;;;;;;;13.58;6.92;;;7.80;99.90;;;;;;2007006;70;21154;-83
2021/10/20 01:37:58;;;;;;;6.58;5.87;;;7.80;99.90;;;;;;2026837;70;21191;-83
2021/10/20 01:40:24;;;;;;;9.50;6.47;;;7.80;99.90;;;;;;2014713;70;21055;-82
2021/10/20 01:42:50;;;;;;;7.97;5.95;;;7.70;99.90;;;;;;1982400;70;21127;-83
2021/10/20 01:45:16;;;;;;;8.13;6.10;;;7.60;99.90;;;;;;2015329;70;21180;-82
2021/10/20 01:47:42;;;;;;;10.15;6.10;;;7.60;99.90;;;;;;1999055;70;21229;-82
2021/10/20 01:50:09;;;;;;;8.83;6.80;;;7.60;99.90;;;;;;1990206;70;21019;-82
2021/10/20 01:52:35;;;;;;;7.95;6.67;;;7.60;99.90;;;;;;1999672;70;21120;-82
2021/10/20 01:55:01;;;;;;;11.68;6.75;;;7.60;99.90;;;;;;1987745;70;21050;-83
2021/10/20 01:57:27;;;;;;;9.78;6.75;;;7.70;99.90;;;;;;1988730;70;21050;-82
2021/10/20 01:59:53;;;;;;;9.88;7.33;;;7.60;99.90;;;;;;2020877;70;21137;-82
2021/10/20 02:02:19;;;;;;;8.98;6.53;;;7.60;99.90;;;;;;1992858;70;21148;-82
2021/10/20 02:04:45;;;;;;;14.13;7.12;;;7.60;99.90;;;;;;1993006;70;21031;-82
2021/10/20 02:07:11;;;;;;;7.37;5.87;;;7.60;99.90;;;;;;2007918;70;21054;-83
2021/10/20 02:09:38;;;;;;;10.00;6.37;;;7.60;99.90;;;;;;1986381;70;21450;-82
2021/10/20 02:12:04;;;;;;;22.70;6.90;;;7.60;99.90;;;;;;1986564;70;21539;-83
2021/10/20 02:14:30;;;;;;;8.60;6.67;;;7.60;99.90;;;;;;2005136;70;21051;-84
2021/10/20 02:16:56;;;;;;;9.80;6.30;;;7.60;99.90;;;;;;2015519;70;21210;-83
2021/10/20 02:19:22;;;;;;;7.30;6.03;;;7.50;99.90;;;;;;1999380;70;21018;-82
2021/10/20 02:21:48;;;;;;;11.53;6.58;;;7.50;99.90;;;;;;2004989;70;21059;-82
2021/10/20 02:24:14;;;;;;;10.72;5.53;;;7.50;99.90;;;;;;2005326;70;21452;-82
2021/10/20 02:26:41;;;;;;;9.03;5.60;;;7.40;99.90;;;;;;2002764;70;21502;-82
2021/10/20 02:29:07;;;;;;;7.78;5.37;;;7.40;99.90;;;;;;1996337;70;21518;-82
2021/10/20 02:31:33;;;;;;;7.28;5.92;;;7.40;99.90;;;;;;1994740;70;21054;-82
2021/10/20 02:33:59;;;;;;;8.98;5.85;;;7.30;99.90;;;;;;2011863;70;21063;-82
2021/10/20 02:36:25;;;;;;;8.60;6.08;;;7.20;99.90;;;;;;2008317;70;21141;-82
2021/10/20 02:38:51;;;;;;;11.03;5.30;;;7.20;99.90;;;;;;2020108;70;21063;-81
2021/10/20 02:41:17;;;;;;;7.87;5.83;;;7.20;99.90;;;;;;2003514;70;21120;-82
2021/10/20 02:43:43;;;;;;;6.92;5.60;;;7.20;99.90;;;;;;1987800;70;21054;-82
2021/10/20 02:46:10;;;;;;;7.40;5.60;;;7.10;99.90;;;;;;2003018;70;21042;-82
2021/10/20 02:48:36;;;;;;;8.98;5.72;;;7.10;99.90;;;;;;1998289;70;21032;-83
2021/10/20 02:51:02;;;;;;;9.28;5.87;;;7.10;99.90;;;;;;1983414;70;21192;-82
2021/10/20 02:53:28;;;;;;;8.08;5.35;;;7.10;99.90;;;;;;1983383;71;21121;-82
2021/10/20 02:55:54;;;;;;;6.90;4.95;;;7.10;99.90;;;;;;1997400;70;21128;-82
2021/10/20 02:58:20;;;;;;;8.85;5.40;;;7.20;99.90;;;;;;1990897;70;21058;-81
2021/10/20 03:00:46;;;;;;;9.70;5.78;;;7.10;99.90;;;;;;1980596;70;21058;-82
2021/10/20 03:03:12;;;;;;;6.22;5.10;;;7.00;99.90;;;;;;1964256;71;21136;-81
2021/10/20 03:05:38;;;;;;;5.50;4.70;;;7.10;99.90;;;;;;2019966;70;21459;-81
2021/10/20 03:08:05;;;;;;;7.47;4.72;;;7.00;99.90;;;;;;2002489;70;21470;-82
2021/10/20 03:10:31;;;;;;;8.63;4.62;;;7.00;99.90;;;;;;2020914;70;21185;-82
2021/10/20 03:12:57;;;;;;;11.40;5.22;;;7.00;99.90;;;;;;1987927;70;21116;-82
2021/10/20 03:15:23;;;;;;;6.47;4.62;;;7.10;99.90;;;;;;2001898;70;21124;-82
2021/10/20 03:17:49;;;;;;;14.18;5.65;;;7.00;99.90;;;;;;1990007;70;21055;-81
2021/10/20 03:20:15;;;;;;;7.45;5.05;;;6.90;99.90;;;;;;2002593;70;21020;-82
2021/10/20 03:22:41;;;;;;;6.12;5.12;;;6.90;99.90;;;;;;2005872;70;21408;-82
2021/10/20 03:25:08;;;;;;;6.33;5.12;;;6.90;99.90;;;;;;2009241;70;21479;-82
2021/10/20 03:27:34;;;;;;;6.28;4.95;;;6.90;99.90;;;;;;1993154;70;21136;-82
2021/10/20 03:30:00;;;;;;;5.03;4.53;;;6.80;99.90;;;;;;1988625;70;21189;-82
2021/10/20 03:32:26;;;;;;;8.53;5.00;;;6.90;99.90;;;;;;2006276;70;21057;-82
2021/10/20 03:34:52;;;;;;;8.63;5.83;;;6.90;99.90;;;;;;2001908;70;21067;-81
2021/10/20 03:37:18;;;;;;;5.67;4.85;;;6.80;99.90;;;;;;2006659;70;21130;-81
2021/10/20 03:39:44;;;;;;;5.45;4.40;;;6.80;99.90;;;;;;1994908;70;21145;-82
2021/10/20 03:42:11;;;;;;;5.78;4.92;;;6.80;99.90;;;;;;2021848;70;21171;-82
2021/10/20 03:44:37;;;;;;;6.33;4.65;;;6.70;99.90;;;;;;2011935;70;21495;-82
2021/10/20 03:47:03;;;;;;;7.53;4.70;;;6.70;99.90;;;;;;2000630;70;21111;-82
2021/10/20 03:49:29;;;;;;;6.20;4.85;;;6.70;99.90;;;;;;1995107;70;21130;-82
2021/10/20 03:51:55;;;;;;;5.75;5.05;;;6.70;99.90;;;;;;1984623;70;21104;-82
2021/10/20 03:54:24;;;;;;;11.65;5.25;;;6.70;99.90;;;;;;1985043;70;21059;-82
2021/10/20 03:56:49;;;;;;;6.72;5.08;;;6.70;99.90;;;;;;1995288;70;21064;-84
2021/10/20 03:59:16;;;;;;;8.03;4.85;;;6.70;99.90;;;;;;1993948;70;21189;-82
2021/10/20 04:01:42;;;;;;;9.75;5.67;;;6.70;99.90;;;;;;1995189;70;21051;-81
2021/10/20 04:04:08;;;;;;;6.55;5.17;;;6.70;99.90;;;;;;1993378;70;21064;-81
2021/10/20 04:06:34;;;;;;;11.93;5.60;;;6.70;99.90;;;;;;2021197;70;21049;-81
2021/10/20 04:09:01;;;;;;;7.80;4.67;;;6.60;99.90;;;;;;1999742;70;21467;-81
2021/10/20 04:11:27;;;;;;;6.05;5.37;;;6.70;99.90;;;;;;1986149;70;21443;-81
2021/10/20 04:13:53;;;;;;;8.05;5.65;;;6.70;99.90;;;;;;1987056;70;21129;-81
2021/10/20 04:16:19;;;;;;;5.65;4.05;;;6.60;99.90;;;;;;1996396;70;21059;-81
2021/10/20 04:18:45;;;;;;;7.28;5.78;;;6.60;99.90;;;;;;2009229;70;21124;-81
2021/10/20 04:21:11;;;;;;;7.58;5.45;;;6.60;99.90;;;;;;1994139;70;21053;-81
2021/10/20 04:23:38;;;;;;;6.83;6.12;;;6.60;99.90;;;;;;2012346;70;21175;-82
2021/10/20 04:26:04;;;;;;;7.17;5.72;;;6.60;99.90;;;;;;1998805;70;21023;-81
2021/10/20 04:28:30;;;;;;;8.63;5.87;;;6.50;99.90;;;;;;1991015;70;21231;-81
2021/10/20 04:30:56;;;;;;;8.30;5.92;;;6.50;99.90;;;;;;2004312;70;21237;-82
2021/10/20 04:33:22;;;;;;;6.28;5.20;;;6.60;99.90;;;;;;2008814;70;21054;-82
2021/10/20 04:35:48;;;;;;;11.28;6.15;;;6.50;99.90;;;;;;2002169;70;21066;-81
2021/10/20 04:38:14;;;;;;;7.67;5.47;;;6.50;99.90;;;;;;1992561;70;21145;-80
2021/10/20 04:40:41;;;;;;;7.37;5.75;;;6.50;99.90;;;;;;1995686;70;21011;-81
2021/10/20 04:43:07;;;;;;;6.70;5.12;;;6.50;99.90;;;;;;2017872;70;21203;-82
2021/10/20 04:45:33;;;;;;;11.33;5.78;;;6.50;99.90;;;;;;2008227;70;21105;-81
2021/10/20 04:47:59;;;;;;;7.15;5.35;;;6.50;99.90;;;;;;1967815;70;21111;-82
2021/10/20 04:50:25;;;;;;;11.33;5.80;;;6.50;99.90;;;;;;1994951;70;21058;-82
2021/10/20 04:52:51;;;;;;;9.23;6.08;;;6.40;99.90;;;;;;2005382;70;21058;-82
2021/10/20 04:55:18;;;;;;;9.60;6.15;;;6.50;99.90;;;;;;1991835;70;21054;-82
2021/10/20 04:57:44;;;;;;;7.90;6.42;;;6.50;99.90;;;;;;1985436;70;21144;-83
2021/10/20 05:00:10;;;;;;;9.20;5.65;;;6.40;99.90;;;;;;1986401;70;21022;-83
2021/10/20 05:02:36;;;;;;;7.55;6.15;;;6.40;99.90;;;;;;1988658;70;21046;-82
2021/10/20 05:05:04;;;;;;;10.70;6.85;;;6.50;99.90;;;;;;1991245;70;21128;-83
2021/10/20 05:07:30;;;;;;;9.20;6.80;;;6.40;99.90;;;;;;1998922;71;21184;-82
2021/10/20 05:09:56;;;;;;;7.62;6.47;;;6.40;99.90;;;;;;1989832;70;21054;-81
2021/10/20 05:12:22;;;;;;;10.45;6.60;;;6.50;99.90;;;;;;2012020;70;21116;-82
2021/10/20 05:14:48;;;;;;;11.00;6.60;;;6.40;99.90;;;;;;2014444;70;21116;-81
2021/10/20 05:17:14;;;;;;;12.47;7.30;;;6.50;99.90;;;;;;1993962;70;21055;-83
2021/10/20 05:19:40;;;;;;;15.38;6.28;;;6.40;99.90;;;;;;2009119;70;21137;-81
2021/10/20 05:22:07;;;;;;;7.28;6.08;;;6.40;99.90;;;;;;1989567;70;21103;-81
2021/10/20 05:24:33;;;;;;;12.00;6.42;;;6.50;99.90;;;;;;1993525;70;21132;-82
2021/10/20 05:26:59;;;;;;;9.58;6.40;;;6.40;99.90;;;;;;1998795;70;21041;-83
2021/10/20 05:29:31;;;;;;;6.12;5.47;;;6.50;99.90;;;;;;1999292;70;21058;-86
2021/10/20 05:31:53;;;;;;;12.30;6.62;;;6.50;99.90;;;;;;1986529;70;21162;-86
2021/10/20 05:34:21;;;;;;;8.38;6.20;;;6.50;99.90;;;;;;1994706;70;21123;-85
2021/10/20 05:36:47;;;;;;;7.08;5.87;;;6.40;99.90;;;;;;1999531;70;21091;-86
2021/10/20 05:39:13;;;;;;;7.92;6.40;;;6.40;99.90;;;;;;1993740;70;21022;-86
2021/10/20 05:41:39;;;;;;;10.88;6.80;;;6.40;99.90;;;;;;1983477;70;21047;-86
2021/10/20 05:44:06;;;;;;;7.37;5.92;;;6.30;99.90;;;;;;2003185;70;21058;-86
2021/10/20 05:46:33;;;;;;;12.43;6.15;;;6.30;99.90;;;;;;1990242;70;21206;-84
2021/10/20 05:48:59;;;;;;;8.25;5.85;;;6.40;99.90;;;;;;1997585;71;21062;-77
2021/10/20 05:51:25;;;;;;;13.28;6.87;;;6.40;99.90;;;;;;1988255;70;21054;-78
2021/10/20 05:53:51;;;;;;;11.03;6.55;;;6.40;99.90;;;;;;1983477;70;21100;-79
2021/10/20 05:56:17;;;;;;;10.00;7.00;;;6.40;99.90;;;;;;1995014;70;21054;-79
2021/10/20 05:58:43;;;;;;;11.05;6.92;;;6.50;99.90;;;;;;2004914;70;21050;-78
2021/10/20 06:01:11;;;;;;;7.17;5.80;;;6.60;99.90;;;;;;2010715;70;21055;-78
2021/10/20 06:03:37;;;;;;;10.43;5.40;;;6.60;99.90;;;;;;2007055;70;21111;-78
2021/10/20 06:06:03;;;;;;;8.08;5.33;;;6.60;99.90;;;;;;1989932;70;21051;-80
2021/10/20 06:08:31;;;;;;;9.83;5.92;;;6.60;99.90;;;;;;1989375;70;21124;-81
2021/10/20 06:10:57;;;;;;;8.03;5.67;;;6.70;99.90;;;;;;2004903;70;21519;-83
2021/10/20 06:13:23;;;;;;;7.95;5.03;;;6.60;99.90;;;;;;2010132;70;21462;-80
2021/10/20 06:15:49;;;;;;;6.03;5.28;;;6.60;99.90;;;;;;1992472;70;21056;-80
2021/10/20 06:18:15;;;;;;;9.93;5.75;;;6.50;99.90;;;;;;2005681;70;21103;-81
2021/10/20 06:20:41;;;;;;;9.15;6.17;;;6.60;99.90;;;;;;1987948;70;21049;-80
2021/10/20 06:23:09;;;;;;;8.78;6.10;;;6.60;99.90;;;;;;2012132;70;21054;-81
2021/10/20 06:25:37;;;;;;;14.53;6.65;;;6.60;99.90;;;;;;1985259;70;21592;-82
2021/10/20 06:28:03;;;;;;;11.90;7.17;;;6.50;99.90;;;;;;2010458;70;21543;-81
2021/10/20 06:30:30;;;;;;;11.73;7.17;;;6.50;99.90;;;;;;2022701;70;21218;-80
2021/10/20 06:32:57;;;;;;;14.10;7.37;;;6.60;99.90;;;;;;1997066;70;21143;-80
2021/10/20 06:35:23;;;;;;;15.25;8.08;;;6.70;99.90;;;;;;1985523;70;21241;-80
2021/10/20 06:37:49;;;;;;;10.70;7.00;;;6.80;99.90;;;;;;2027160;70;21063;-80
2021/10/20 06:40:15;;;;;;;14.93;7.55;;;6.80;99.90;;;;;;2001506;70;21120;-81
2021/10/20 06:42:41;;;;;;;18.10;7.58;;;6.70;99.90;;;;;;1987422;70;21031;-81
2021/10/20 06:45:07;;;;;;;11.03;6.42;;;6.80;99.90;;;;;;1996022;70;21201;-82
2021/10/20 06:47:33;;;;;;;14.60;6.72;;;6.90;99.90;;;;;;2011899;70;21133;-81
2021/10/20 06:49:59;;;;;;;15.20;7.85;;;6.90;99.90;;;;;;2011767;70;21583;-82
2021/10/20 06:52:26;;;;;;;11.28;6.87;;;6.90;99.90;;;;;;2007861;70;21564;-80
2021/10/20 06:54:53;;;;;;;20.00;7.03;;;6.90;99.90;;;;;;1995931;70;21591;-81
2021/10/20 06:57:19;;;;;;;9.98;6.35;;;6.90;99.90;;;;;;2004216;70;21189;-80
2021/10/20 06:59:45;;;;;;;15.05;6.40;;;7.00;99.90;;;;;;2018853;70;21458;-81
2021/10/20 07:02:11;;;;;;;12.93;6.12;;;7.10;99.90;;;;;;1995306;70;21063;-80
2021/10/20 07:04:38;;;;;;;9.73;6.72;;;7.20;99.90;;;;;;1986789;70;21053;-80
2021/10/20 07:07:06;;;;;;;11.97;6.42;;;7.20;99.90;;;;;;2004160;70;21195;-80
2021/10/20 07:09:33;;;;;;;13.72;7.33;;;7.20;99.90;;;;;;2027665;70;21503;-79
2021/10/20 07:12:00;;;;;;;21.07;7.80;;;7.30;99.90;;;;;;2010213;70;21024;-80
2021/10/20 07:14:26;;;;;;;16.02;7.72;;;7.40;99.90;;;;;;2010425;70;21031;-81
2021/10/20 07:16:52;;;;;;;16.70;8.35;;;7.50;99.90;;;;;;2016806;70;21050;-79
2021/10/20 07:19:18;;;;;;;22.13;8.08;;;7.70;99.90;;;;;;2023739;70;21131;-80
2021/10/20 07:21:44;;;;;;;16.20;8.68;;;7.90;99.90;;;;;;2015063;70;21050;-80
2021/10/20 07:24:10;;;;;;;26.30;8.88;;;8.00;99.90;;;;;;1996548;70;21059;-80
2021/10/20 07:26:39;;;;;;;25.05;8.53;;;8.10;99.90;;;;;;1993882;70;21055;-82
2021/10/20 07:29:04;;;;;;;15.58;8.35;;;8.30;99.90;;;;;;2008426;70;21090;-81
2021/10/20 07:31:30;;;;;;;20.92;8.95;;;8.40;99.90;;;;;;1997463;70;21112;-81
2021/10/20 07:33:57;;;;;;;13.30;7.53;;;8.60;99.90;;;;;;2009929;70;21058;-81
2021/10/20 07:36:23;;;;;;;16.27;7.15;;;8.70;99.90;;;;;;1988630;70;21017;-80
2021/10/20 07:38:49;;;;;;;11.28;7.00;;;8.80;99.90;;;;;;1986908;70;21176;-80
2021/10/20 07:41:15;;;;;;;9.80;6.35;;;9.00;99.90;;;;;;2003905;70;21054;-81
2021/10/20 07:43:41;;;;;;;16.75;6.95;;;9.20;99.90;;;;;;1986887;70;21125;-78
2021/10/20 07:46:07;;;;;;;12.68;6.95;;;9.30;99.90;;;;;;1997120;70;21137;-78
2021/10/20 07:48:33;;;;;;;16.07;6.35;;;9.50;99.90;;;;;;1991482;71;21024;-80
2021/10/20 07:50:59;;;;;;;15.45;7.75;;;9.70;99.90;;;;;;2001718;70;21200;-81
2021/10/20 07:53:27;;;;;;;10.03;6.78;;;10.00;99.90;;;;;;2016074;70;21058;-80
2021/10/20 07:55:53;;;;;;;17.90;6.25;;;10.20;99.90;;;;;;1995022;70;21053;-77
2021/10/20 07:58:19;;;;;;;8.08;5.55;;;10.40;99.90;;;;;;2001585;70;21007;-78
2021/10/20 08:00:45;;;;;;;10.43;6.00;;;10.60;99.90;;;;;;2006717;70;21128;-74
2021/10/20 08:03:11;;;;;;;7.80;5.35;;;10.80;99.90;;;;;;2009244;70;21194;-77
2021/10/20 08:05:38;;;;;;;8.28;4.60;;;10.80;99.90;;;;;;2008198;70;21424;-80
2021/10/20 08:08:06;;;;;;;7.35;4.78;;;11.00;99.90;;;;;;2007870;70;21173;-80
2021/10/20 08:10:32;;;;;;;8.23;5.00;;;11.20;99.90;;;;;;1986865;71;21495;-80
2021/10/20 08:12:59;;;;;;;9.80;4.90;;;11.30;99.90;;;;;;1991636;70;21392;-79
2021/10/20 08:15:25;;;;;;;19.67;5.03;;;11.40;99.90;;;;;;1988784;70;21503;-81
2021/10/20 08:17:52;;;;;;;11.50;5.45;;;11.60;99.90;;;;;;1990523;70;21422;-80
2021/10/20 08:20:18;;;;;;;9.20;5.60;;;11.80;99.90;;;;;;1997365;70;21424;-80
2021/10/20 08:22:44;;;;;;;13.50;5.17;;;12.00;99.90;;;;;;2010958;70;21516;-81
2021/10/20 08:25:11;;;;;;;11.22;4.80;;;12.40;99.90;;;;;;2012926;70;21518;-79
2021/10/20 08:27:37;;;;;;;7.15;4.92;;;12.70;99.90;;;;;;2017586;70;21136;-80
2021/10/20 08:30:04;;;;;;;7.40;4.90;;;13.10;99.90;;;;;;1990416;70;21248;-81
2021/10/20 08:32:30;;;;;;;5.85;4.03;;;13.40;99.90;;;;;;1991159;71;21174;-81
2021/10/20 08:34:56;;;;;;;5.60;3.52;;;13.60;99.90;;;;;;1998349;70;21023;-81
2021/10/20 08:37:22;;;;;;;6.65;3.85;;;14.00;99.90;;;;;;2002423;70;21270;-81
2021/10/20 08:39:48;;;;;;;6.90;3.10;;;14.30;99.90;;;;;;2006024;70;21193;-81
2021/10/20 08:42:14;;;;;;;5.75;3.87;;;14.60;99.90;;;;;;2001283;70;21073;-81
2021/10/20 08:44:40;;;;;;;4.72;3.50;;;14.90;99.90;;;;;;2013695;70;21238;-80
2021/10/20 08:47:08;;;;;;;4.80;2.92;;;15.10;99.90;;;;;;1990822;70;21458;-81
2021/10/20 08:49:34;;;;;;;4.75;2.90;;;15.60;99.90;;;;;;1996586;70;21062;-81
2021/10/20 08:52:00;;;;;;;8.55;3.67;;;15.90;99.90;;;;;;1997499;70;21050;-81
2021/10/20 08:54:26;;;;;;;3.47;2.87;;;16.00;99.90;;;;;;1994894;70;21150;-81
2021/10/20 08:56:57;;;;;;;9.63;3.65;;;16.10;99.90;;;;;;1980240;70;21062;-80
2021/10/20 08:59:21;;;;;;;7.55;3.60;;;15.90;99.90;;;;;;1994817;70;21237;-79
2021/10/20 09:01:47;;;;;;;6.78;3.10;;;16.00;99.90;;;;;;2002039;70;21054;-80
2021/10/20 09:04:19;;;;;;;4.42;2.87;;;16.40;99.90;;;;;;2015995;70;21082;-81
2021/10/20 09:06:43;;;;;;;11.45;3.55;;;16.40;99.90;;;;;;2020126;70;21150;-80
2021/10/20 09:09:09;;;;;;;5.47;3.72;;;16.20;99.90;;;;;;1995705;70;21592;-80
2021/10/20 09:11:37;;;;;;;6.53;3.20;;;16.40;99.90;;;;;;1991855;70;21123;-80
2021/10/20 09:14:05;;;;;;;8.05;3.55;;;16.50;99.90;;;;;;2014669;70;21099;-78
2021/10/20 09:16:31;;;;;;;5.35;2.67;;;16.80;99.90;;;;;;2002565;70;21479;-79
2021/10/20 09:18:58;;;;;;;6.00;3.10;;;17.20;99.90;;;;;;2004965;70;21142;-79
2021/10/20 09:21:26;;;;;;;3.72;3.00;;;17.20;99.90;;;;;;2012261;70;21091;-81
2021/10/20 09:23:52;;;;;;;7.47;2.65;;;17.00;99.90;;;;;;1996330;70;21201;-78
2021/10/20 09:26:20;;;;;;;4.40;2.70;;;17.30;99.90;;;;;;2008598;70;21027;-80
2021/10/20 09:28:48;;;;;;;2.52;2.30;;;17.60;99.90;;;;;;2007066;70;21118;-78
2021/10/20 09:31:15;;;;;;;8.78;2.50;;;17.80;99.90;;;;;;2014734;70;21079;-79
2021/10/20 09:33:41;;;;;;;4.22;2.50;;;18.00;99.90;;;;;;2012088;70;21127;-81
2021/10/20 09:36:07;;;;;;;5.20;2.50;;;18.10;99.90;;;;;;2002793;70;21124;-79
2021/10/20 09:38:33;;;;;;;5.37;2.45;;;17.90;99.90;;;;;;2004548;70;21467;-80
2021/10/20 09:40:59;;;;;;;5.17;2.60;;;17.80;99.90;;;;;;2019621;70;21502;-80
2021/10/20 09:43:26;;;;;;;4.05;2.70;;;17.70;99.90;;;;;;1992438;70;21511;-79
2021/10/20 09:45:52;;;;;;;3.42;2.20;;;17.80;99.90;;;;;;2017205;70;21124;-79
2021/10/20 09:48:18;;;;;;;2.95;2.60;;;18.10;99.90;;;;;;2029645;70;21051;-79
2021/10/20 09:50:46;;;;;;;2.85;2.30;;;18.70;99.90;;;;;;2003993;70;21109;-79
2021/10/20 09:53:12;;;;;;;5.22;2.10;;;19.70;99.90;;;;;;1992294;70;21093;-80
2021/10/20 09:55:38;;;;;;;5.65;2.35;;;20.40;99.90;;;;;;2001849;70;21062;-79
2021/10/20 09:58:04;;;;;;;2.50;1.92;;;20.80;99.90;;;;;;1990853;70;21176;-79
2021/10/20 10:00:30;;;;;;;6.78;1.80;;;21.10;99.90;;;;;;1999158;70;21267;-84
2021/10/20 10:02:57;;;;;;;5.28;1.75;;;21.30;99.90;;;;;;1992841;70;21116;-81
2021/10/20 10:05:23;;;;;;;2.55;1.60;;;21.50;99.90;;;;;;2012294;70;21258;-85
2021/10/20 10:07:50;;;;;;;2.98;1.87;;;21.40;99.90;;;;;;1995005;70;21135;-84
2021/10/20 10:10:17;;;;;;;2.42;1.40;;;21.50;99.90;;;;;;1980787;70;21196;-83
2021/10/20 10:12:44;;;;;;;2.87;1.57;;;21.40;99.90;;;;;;2015846;70;21027;-81
2021/10/20 10:15:10;;;;;;;2.72;1.62;;;21.50;99.90;;;;;;2006018;70;21027;-81
2021/10/20 10:17:36;;;;;;;3.65;1.65;;;21.50;99.90;;;;;;1997717;70;21221;-79
2021/10/20 10:20:02;;;;;;;2.72;1.40;;;21.60;99.90;;;;;;2009210;70;21051;-82
2021/10/20 10:22:29;;;;;;;5.85;1.57;;;21.60;99.90;;;;;;2003209;70;21051;-82
2021/10/20 10:24:55;;;;;;;2.55;1.50;;;21.50;99.90;;;;;;1995177;70;21483;-77
2021/10/20 10:27:21;;;;;;;3.08;1.60;;;21.60;99.90;;;;;;2005802;70;21054;-82
2021/10/20 10:29:48;;;;;;;2.50;1.47;;;21.90;99.90;;;;;;1990537;70;21512;-87
2021/10/20 10:32:14;;;;;;;2.95;1.70;;;21.90;99.90;;;;;;1984617;70;21070;-84
2021/10/20 10:34:40;;;;;;;2.00;1.50;;;22.00;99.90;;;;;;2026278;70;21131;-87
2021/10/20 10:37:06;;;;;;;2.67;1.25;;;22.10;99.90;;;;;;1991256;70;21018;-81
2021/10/20 10:39:33;;;;;;;2.92;1.60;;;22.10;99.90;;;;;;2021567;70;21093;-80
2021/10/20 10:41:59;;;;;;;4.30;3.05;;;21.70;99.90;;;;;;1997111;70;21520;-78
2021/10/20 10:44:25;;;;;;;5.97;1.60;;;21.50;99.90;;;;;;2023232;70;21136;-78
2021/10/20 10:46:52;;;;;;;2.22;1.67;;;21.40;99.90;;;;;;1992811;70;21060;-80
2021/10/20 10:49:18;;;;;;;2.10;1.57;;;21.20;99.90;;;;;;1964600;71;21128;-81
2021/10/20 10:51:44;;;;;;;1.50;1.37;;;21.20;99.90;;;;;;1998297;70;21050;-78
2021/10/20 10:54:12;;;;;;;2.08;1.60;;;21.10;99.90;;;;;;2002636;70;21071;-78
2021/10/20 10:56:38;;;;;;;1.98;1.10;;;21.40;99.90;;;;;;2008256;70;21565;-83
2021/10/20 10:59:05;;;;;;;1.80;1.60;;;21.80;99.90;;;;;;2020348;70;21561;-82
2021/10/20 11:01:32;;;;;;;1.98;1.27;;;22.10;99.90;;;;;;2005890;70;21119;-79
2021/10/20 11:03:58;;;;;;;4.28;1.50;;;22.40;99.90;;;;;;1999398;70;21019;-79
2021/10/20 11:06:24;;;;;;;1.72;1.40;;;23.10;99.90;;;;;;1996316;70;21055;-81
2021/10/20 11:08:50;;;;;;;1.60;1.40;;;22.70;99.90;;;;;;2002614;70;21121;-78
2021/10/20 11:11:16;;;;;;;1.67;1.35;;;22.50;99.90;;;;;;1990890;70;21335;-78
2021/10/20 11:13:42;;;;;;;1.77;1.20;;;22.80;99.90;;;;;;1998444;70;21019;-77
2021/10/20 11:16:08;;;;;;;2.90;1.22;;;23.20;99.90;;;;;;2015147;70;21181;-77
2021/10/20 11:18:34;;;;;;;1.45;1.10;;;23.30;99.90;;;;;;2016386;70;21177;-77
2021/10/20 11:21:01;;;;;;;3.75;1.55;;;22.90;99.90;;;;;;2016873;70;21101;-77
2021/10/20 11:23:28;;;;;;;2.40;1.37;;;22.60;99.90;;;;;;2020261;70;21129;-75
2021/10/20 11:25:58;;;;;;;2.00;1.35;;;22.40;99.90;;;;;;2006813;70;21028;-76
2021/10/20 11:28:22;;;;;;;3.70;1.50;;;22.10;99.90;;;;;;2000474;70;21148;-77
2021/10/20 11:30:48;;;;;;;1.60;1.22;;;22.10;99.90;;;;;;1993038;71;21055;-78
2021/10/20 11:33:14;;;;;;;2.10;1.10;;;22.30;99.90;;;;;;1988331;70;21050;-75
2021/10/20 11:35:40;;;;;;;2.55;1.00;;;22.80;99.90;;;;;;1992109;70;21065;-76
2021/10/20 11:38:07;;;;;;;1.12;0.90;;;23.20;99.90;;;;;;1989759;71;21059;-75
2021/10/20 11:40:33;;;;;;;3.42;1.52;;;23.30;99.90;;;;;;2005690;70;21206;-75
2021/10/20 11:42:59;;;;;;;1.10;1.00;;;23.70;99.90;;;;;;1993079;70;21058;-75
2021/10/20 11:45:25;;;;;;;2.02;1.30;;;23.80;99.90;;;;;;2015861;70;21019;-76
2021/10/20 11:47:52;;;;;;;1.37;1.10;;;24.40;99.90;;;;;;2003519;70;21058;-75
2021/10/20 11:50:18;;;;;;;3.70;1.30;;;24.60;99.90;;;;;;2002108;70;21163;-76
2021/10/20 11:52:44;;;;;;;2.12;1.00;;;24.70;99.90;;;;;;1996847;70;21109;-79
2021/10/20 11:55:10;;;;;;;2.37;1.37;;;24.60;99.90;;;;;;1993953;70;21046;-78
2021/10/20 11:57:37;;;;;;;2.65;1.37;;;24.70;99.90;;;;;;1991870;70;21062;-77
2021/10/20 12:00:03;;;;;;;1.82;1.00;;;25.00;99.90;;;;;;2005219;70;21488;-76
2021/10/20 12:02:30;;;;;;;2.08;1.27;;;25.20;99.90;;;;;;2003194;70;21058;-77
2021/10/20 12:04:56;;;;;;;1.42;1.15;;;24.90;99.90;;;;;;1991551;70;21277;-76
2021/10/20 12:07:30;;;;;;;2.25;1.00;;;24.30;99.90;;;;;;2025866;70;21531;-76
2021/10/20 12:09:50;;;;;;;1.47;1.10;;;23.70;99.90;;;;;;2020865;70;21066;-78
2021/10/20 12:12:17;;;;;;;1.85;1.20;;;23.20;99.90;;;;;;2003643;70;21061;-78
2021/10/20 12:14:43;;;;;;;3.55;1.25;;;23.10;99.90;;;;;;1986918;70;21105;-76
2021/10/20 12:17:10;;;;;;;2.30;1.00;;;23.00;99.90;;;;;;2003056;70;21023;-78
2021/10/20 12:19:36;;;;;;;1.62;0.90;;;22.80;99.90;;;;;;2007477;70;21050;-75
2021/10/20 12:22:05;;;;;;;3.30;1.10;;;22.90;99.90;;;;;;1993795;70;21517;-76
2021/10/20 12:24:31;;;;;;;5.08;1.00;;;23.40;99.90;;;;;;2029189;70;21015;-80
2021/10/20 12:26:57;;;;;;;1.87;0.98;;;23.40;99.90;;;;;;1984574;70;21050;-78
2021/10/20 12:29:23;;;;;;;2.80;1.10;;;23.70;99.90;;;;;;1998848;70;21047;-78
2021/10/20 12:31:49;;;;;;;0.88;0.85;;;24.70;99.90;;;;;;2026052;70;21439;-76
2021/10/20 12:34:16;;;;;;;1.00;0.90;;;25.70;99.90;;;;;;2003546;70;21470;-79
2021/10/20 12:36:43;;;;;;;1.90;1.17;;;25.60;99.90;;;;;;2014882;70;21478;-77
2021/10/20 12:39:09;;;;;;;2.27;1.20;;;25.50;99.90;;;;;;2009762;70;21124;-77
2021/10/20 12:41:35;;;;;;;4.97;1.07;;;25.30;99.90;;;;;;1994025;70;21054;-77
2021/10/20 12:44:01;;;;;;;2.12;1.07;;;25.30;99.90;;;;;;1996106;70;21054;-76